sensor_id;sensor_type;location;lat;lon;timestamp;P1;durP1;ratioP1;P2;durP2;ratioP2
36855;SDS011;22788;51.434;6.786;2023-07-08T00:00:17;3.63;;;2.85;;
36855;SDS011;22788;51.434;6.786;2023-07-08T00:02:45;3.58;;;2.85;;
36855;SDS011;22788;51.434;6.786;2023-07-08T00:05:12;4.50;;;3.00;;
36855;SDS011;22788;51.434;6.786;2023-07-08T00:07:39;3.58;;;2.83;;
36855;SDS011;22788;51.434;6.786;2023-07-08T00:10:16;6.85;;;2.90;;
36855;SDS011;22788;51.434;6.786;2023-07-08T00:12:44;5.10;;;2.88;;
36855;SDS011;22788;51.434;6.786;2023-07-08T00:15:12;3.83;;;2.47;;
36855;SDS011;22788;51.434;6.786;2023-07-08T00:17:37;6.60;;;2.72;;
36855;SDS011;22788;51.434;6.786;2023-07-08T00:20:09;4.88;;;2.60;;
36855;SDS011;22788;51.434;6.786;2023-07-08T00:22:36;2.78;;;2.30;;
36855;SDS011;22788;51.434;6.786;2023-07-08T00:25:02;3.35;;;2.53;;
36855;SDS011;22788;51.434;6.786;2023-07-08T00:27:29;3.75;;;2.60;;
36855;SDS011;22788;51.434;6.786;2023-07-08T00:29:54;4.47;;;2.90;;
36855;SDS011;22788;51.434;6.786;2023-07-08T00:32:20;2.55;;;2.35;;
36855;SDS011;22788;51.434;6.786;2023-07-08T00:34:45;9.55;;;3.10;;
36855;SDS011;22788;51.434;6.786;2023-07-08T00:37:11;4.28;;;3.10;;
36855;SDS011;22788;51.434;6.786;2023-07-08T00:39:37;4.78;;;2.90;;
36855;SDS011;22788;51.434;6.786;2023-07-08T00:42:04;3.85;;;2.85;;
36855;SDS011;22788;51.434;6.786;2023-07-08T00:44:39;3.85;;;2.85;;
36855;SDS011;22788;51.434;6.786;2023-07-08T00:47:07;5.10;;;2.78;;
36855;SDS011;22788;51.434;6.786;2023-07-08T00:49:36;5.03;;;2.90;;
36855;SDS011;22788;51.434;6.786;2023-07-08T00:52:23;3.08;;;2.78;;
36855;SDS011;22788;51.434;6.786;2023-07-08T00:54:50;3.42;;;2.63;;
36855;SDS011;22788;51.434;6.786;2023-07-08T00:57:16;5.43;;;3.03;;
36855;SDS011;22788;51.434;6.786;2023-07-08T00:59:45;4.78;;;3.03;;
36855;SDS011;22788;51.434;6.786;2023-07-08T01:02:13;3.50;;;2.33;;
36855;SDS011;22788;51.434;6.786;2023-07-08T01:04:43;5.47;;;2.95;;
36855;SDS011;22788;51.434;6.786;2023-07-08T01:07:15;3.60;;;2.80;;
36855;SDS011;22788;51.434;6.786;2023-07-08T01:09:44;5.13;;;3.03;;
36855;SDS011;22788;51.434;6.786;2023-07-08T01:12:11;5.18;;;2.95;;
36855;SDS011;22788;51.434;6.786;2023-07-08T01:14:41;3.65;;;2.97;;
36855;SDS011;22788;51.434;6.786;2023-07-08T01:17:09;4.35;;;2.85;;
36855;SDS011;22788;51.434;6.786;2023-07-08T01:19:35;3.97;;;3.10;;
36855;SDS011;22788;51.434;6.786;2023-07-08T01:22:03;4.75;;;3.13;;
36855;SDS011;22788;51.434;6.786;2023-07-08T01:24:30;3.92;;;3.08;;
36855;SDS011;22788;51.434;6.786;2023-07-08T01:26:57;5.32;;;3.30;;
36855;SDS011;22788;51.434;6.786;2023-07-08T01:29:24;3.45;;;2.78;;
36855;SDS011;22788;51.434;6.786;2023-07-08T01:31:50;8.43;;;2.80;;
36855;SDS011;22788;51.434;6.786;2023-07-08T01:34:16;3.35;;;2.95;;
36855;SDS011;22788;51.434;6.786;2023-07-08T01:36:45;6.82;;;3.10;;
36855;SDS011;22788;51.434;6.786;2023-07-08T01:39:16;3.42;;;3.00;;
36855;SDS011;22788;51.434;6.786;2023-07-08T01:41:43;5.90;;;3.05;;
36855;SDS011;22788;51.434;6.786;2023-07-08T01:44:18;6.00;;;2.95;;
36855;SDS011;22788;51.434;6.786;2023-07-08T01:46:49;4.35;;;3.35;;
36855;SDS011;22788;51.434;6.786;2023-07-08T01:49:15;3.03;;;2.70;;
36855;SDS011;22788;51.434;6.786;2023-07-08T01:51:41;6.07;;;2.67;;
36855;SDS011;22788;51.434;6.786;2023-07-08T01:54:07;7.72;;;2.70;;
36855;SDS011;22788;51.434;6.786;2023-07-08T01:56:34;5.72;;;3.00;;
36855;SDS011;22788;51.434;6.786;2023-07-08T01:59:00;3.45;;;2.33;;
36855;SDS011;22788;51.434;6.786;2023-07-08T02:01:25;3.53;;;2.83;;
36855;SDS011;22788;51.434;6.786;2023-07-08T02:03:51;4.70;;;2.92;;
36855;SDS011;22788;51.434;6.786;2023-07-08T02:06:17;4.85;;;2.92;;
36855;SDS011;22788;51.434;6.786;2023-07-08T02:08:42;3.33;;;2.97;;
36855;SDS011;22788;51.434;6.786;2023-07-08T02:11:08;8.55;;;3.60;;
36855;SDS011;22788;51.434;6.786;2023-07-08T02:13:35;5.30;;;3.38;;
36855;SDS011;22788;51.434;6.786;2023-07-08T02:16:01;7.38;;;2.70;;
36855;SDS011;22788;51.434;6.786;2023-07-08T02:18:26;5.32;;;2.85;;
36855;SDS011;22788;51.434;6.786;2023-07-08T02:20:52;3.70;;;2.97;;
36855;SDS011;22788;51.434;6.786;2023-07-08T02:23:18;4.05;;;3.13;;
36855;SDS011;22788;51.434;6.786;2023-07-08T02:25:49;2.67;;;2.40;;
36855;SDS011;22788;51.434;6.786;2023-07-08T02:28:15;3.67;;;2.40;;
36855;SDS011;22788;51.434;6.786;2023-07-08T02:30:42;5.10;;;2.88;;
36855;SDS011;22788;51.434;6.786;2023-07-08T02:33:08;3.20;;;2.63;;
36855;SDS011;22788;51.434;6.786;2023-07-08T02:35:33;3.88;;;2.70;;
36855;SDS011;22788;51.434;6.786;2023-07-08T02:37:59;2.90;;;2.60;;
36855;SDS011;22788;51.434;6.786;2023-07-08T02:40:25;3.28;;;2.60;;
36855;SDS011;22788;51.434;6.786;2023-07-08T02:42:51;3.05;;;2.58;;
36855;SDS011;22788;51.434;6.786;2023-07-08T02:45:16;2.97;;;2.50;;
36855;SDS011;22788;51.434;6.786;2023-07-08T02:47:44;3.03;;;2.72;;
36855;SDS011;22788;51.434;6.786;2023-07-08T02:50:10;3.00;;;2.67;;
36855;SDS011;22788;51.434;6.786;2023-07-08T02:52:36;4.10;;;2.67;;
36855;SDS011;22788;51.434;6.786;2023-07-08T02:55:02;2.58;;;2.35;;
36855;SDS011;22788;51.434;6.786;2023-07-08T02:57:28;4.07;;;2.60;;
36855;SDS011;22788;51.434;6.786;2023-07-08T02:59:54;2.53;;;2.30;;
36855;SDS011;22788;51.434;6.786;2023-07-08T03:02:20;3.22;;;2.60;;
36855;SDS011;22788;51.434;6.786;2023-07-08T03:04:47;3.67;;;2.83;;
36855;SDS011;22788;51.434;6.786;2023-07-08T03:07:13;3.00;;;2.55;;
36855;SDS011;22788;51.434;6.786;2023-07-08T03:09:39;3.95;;;2.67;;
36855;SDS011;22788;51.434;6.786;2023-07-08T03:12:05;2.72;;;2.40;;
36855;SDS011;22788;51.434;6.786;2023-07-08T03:14:32;5.03;;;2.78;;
36855;SDS011;22788;51.434;6.786;2023-07-08T03:16:57;4.05;;;2.70;;
36855;SDS011;22788;51.434;6.786;2023-07-08T03:19:23;4.32;;;2.83;;
36855;SDS011;22788;51.434;6.786;2023-07-08T03:21:50;4.00;;;2.50;;
36855;SDS011;22788;51.434;6.786;2023-07-08T03:24:15;2.78;;;2.53;;
36855;SDS011;22788;51.434;6.786;2023-07-08T03:26:41;3.83;;;2.78;;
36855;SDS011;22788;51.434;6.786;2023-07-08T03:29:07;2.80;;;2.60;;
36855;SDS011;22788;51.434;6.786;2023-07-08T03:31:38;2.95;;;2.50;;
36855;SDS011;22788;51.434;6.786;2023-07-08T03:34:03;4.25;;;2.53;;
36855;SDS011;22788;51.434;6.786;2023-07-08T03:36:29;5.93;;;3.10;;
36855;SDS011;22788;51.434;6.786;2023-07-08T03:38:57;3.10;;;2.60;;
36855;SDS011;22788;51.434;6.786;2023-07-08T03:41:23;2.60;;;2.40;;
36855;SDS011;22788;51.434;6.786;2023-07-08T03:43:49;3.80;;;2.63;;
36855;SDS011;22788;51.434;6.786;2023-07-08T03:46:15;5.00;;;2.30;;
36855;SDS011;22788;51.434;6.786;2023-07-08T03:48:41;3.08;;;2.47;;
36855;SDS011;22788;51.434;6.786;2023-07-08T03:51:07;3.13;;;2.83;;
36855;SDS011;22788;51.434;6.786;2023-07-08T03:53:35;3.60;;;3.00;;
36855;SDS011;22788;51.434;6.786;2023-07-08T03:56:02;4.72;;;3.10;;
36855;SDS011;22788;51.434;6.786;2023-07-08T03:58:28;4.25;;;2.67;;
36855;SDS011;22788;51.434;6.786;2023-07-08T04:00:53;4.70;;;2.80;;
36855;SDS011;22788;51.434;6.786;2023-07-08T04:03:19;2.75;;;2.45;;
36855;SDS011;22788;51.434;6.786;2023-07-08T04:05:45;3.88;;;2.92;;
36855;SDS011;22788;51.434;6.786;2023-07-08T04:08:10;3.95;;;2.97;;
36855;SDS011;22788;51.434;6.786;2023-07-08T04:10:36;4.20;;;3.00;;
36855;SDS011;22788;51.434;6.786;2023-07-08T04:13:03;4.03;;;2.83;;
36855;SDS011;22788;51.434;6.786;2023-07-08T04:15:29;3.22;;;2.70;;
36855;SDS011;22788;51.434;6.786;2023-07-08T04:17:54;4.85;;;3.10;;
36855;SDS011;22788;51.434;6.786;2023-07-08T04:20:20;4.43;;;2.60;;
36855;SDS011;22788;51.434;6.786;2023-07-08T04:22:46;4.22;;;2.75;;
36855;SDS011;22788;51.434;6.786;2023-07-08T04:25:12;6.68;;;3.55;;
36855;SDS011;22788;51.434;6.786;2023-07-08T04:27:38;5.10;;;2.92;;
36855;SDS011;22788;51.434;6.786;2023-07-08T04:30:06;3.00;;;2.53;;
36855;SDS011;22788;51.434;6.786;2023-07-08T04:32:39;3.35;;;2.45;;
36855;SDS011;22788;51.434;6.786;2023-07-08T04:35:05;4.43;;;2.80;;
36855;SDS011;22788;51.434;6.786;2023-07-08T04:37:31;3.35;;;2.63;;
36855;SDS011;22788;51.434;6.786;2023-07-08T04:39:56;2.88;;;2.55;;
36855;SDS011;22788;51.434;6.786;2023-07-08T04:42:22;4.30;;;2.60;;
36855;SDS011;22788;51.434;6.786;2023-07-08T04:44:47;3.33;;;2.50;;
36855;SDS011;22788;51.434;6.786;2023-07-08T04:47:14;3.38;;;2.60;;
36855;SDS011;22788;51.434;6.786;2023-07-08T04:49:40;2.92;;;2.63;;
36855;SDS011;22788;51.434;6.786;2023-07-08T04:52:06;4.25;;;2.80;;
36855;SDS011;22788;51.434;6.786;2023-07-08T04:54:31;2.55;;;2.33;;
36855;SDS011;22788;51.434;6.786;2023-07-08T04:56:57;2.60;;;2.40;;
36855;SDS011;22788;51.434;6.786;2023-07-08T04:59:23;3.20;;;2.90;;
36855;SDS011;22788;51.434;6.786;2023-07-08T05:01:50;3.88;;;2.60;;
36855;SDS011;22788;51.434;6.786;2023-07-08T05:04:19;5.78;;;3.05;;
36855;SDS011;22788;51.434;6.786;2023-07-08T05:06:46;3.70;;;2.83;;
36855;SDS011;22788;51.434;6.786;2023-07-08T05:09:11;3.40;;;2.70;;
36855;SDS011;22788;51.434;6.786;2023-07-08T05:11:37;3.95;;;2.58;;
36855;SDS011;22788;51.434;6.786;2023-07-08T05:14:04;6.20;;;2.90;;
36855;SDS011;22788;51.434;6.786;2023-07-08T05:16:31;3.13;;;2.70;;
36855;SDS011;22788;51.434;6.786;2023-07-08T05:18:58;4.15;;;2.80;;
36855;SDS011;22788;51.434;6.786;2023-07-08T05:21:25;4.30;;;2.80;;
36855;SDS011;22788;51.434;6.786;2023-07-08T05:23:53;3.60;;;2.58;;
36855;SDS011;22788;51.434;6.786;2023-07-08T05:26:19;4.28;;;3.22;;
36855;SDS011;22788;51.434;6.786;2023-07-08T05:28:44;4.25;;;2.88;;
36855;SDS011;22788;51.434;6.786;2023-07-08T05:31:10;5.22;;;3.00;;
36855;SDS011;22788;51.434;6.786;2023-07-08T05:33:35;3.42;;;2.35;;
36855;SDS011;22788;51.434;6.786;2023-07-08T05:36:01;6.45;;;2.97;;
36855;SDS011;22788;51.434;6.786;2023-07-08T05:38:28;3.47;;;2.40;;
36855;SDS011;22788;51.434;6.786;2023-07-08T05:40:54;3.85;;;2.72;;
36855;SDS011;22788;51.434;6.786;2023-07-08T05:43:22;3.25;;;2.95;;
36855;SDS011;22788;51.434;6.786;2023-07-08T05:45:48;3.30;;;2.65;;
36855;SDS011;22788;51.434;6.786;2023-07-08T05:48:13;5.40;;;2.70;;
36855;SDS011;22788;51.434;6.786;2023-07-08T05:50:39;3.53;;;2.97;;
36855;SDS011;22788;51.434;6.786;2023-07-08T05:53:06;4.30;;;2.67;;
36855;SDS011;22788;51.434;6.786;2023-07-08T05:55:35;5.45;;;3.58;;
36855;SDS011;22788;51.434;6.786;2023-07-08T05:58:01;3.55;;;2.88;;
36855;SDS011;22788;51.434;6.786;2023-07-08T06:00:27;4.07;;;2.60;;
36855;SDS011;22788;51.434;6.786;2023-07-08T06:02:52;2.60;;;2.38;;
36855;SDS011;22788;51.434;6.786;2023-07-08T06:05:18;5.28;;;3.25;;
36855;SDS011;22788;51.434;6.786;2023-07-08T06:07:44;3.28;;;2.97;;
36855;SDS011;22788;51.434;6.786;2023-07-08T06:10:09;4.25;;;3.05;;
36855;SDS011;22788;51.434;6.786;2023-07-08T06:12:36;4.63;;;3.15;;
36855;SDS011;22788;51.434;6.786;2023-07-08T06:15:02;2.90;;;2.45;;
36855;SDS011;22788;51.434;6.786;2023-07-08T06:17:28;3.97;;;2.80;;
36855;SDS011;22788;51.434;6.786;2023-07-08T06:19:54;3.80;;;2.90;;
36855;SDS011;22788;51.434;6.786;2023-07-08T06:22:20;3.83;;;2.67;;
36855;SDS011;22788;51.434;6.786;2023-07-08T06:24:45;3.95;;;2.45;;
36855;SDS011;22788;51.434;6.786;2023-07-08T06:27:11;4.68;;;2.85;;
36855;SDS011;22788;51.434;6.786;2023-07-08T06:29:38;3.47;;;2.78;;
36855;SDS011;22788;51.434;6.786;2023-07-08T06:32:04;3.65;;;2.97;;
36855;SDS011;22788;51.434;6.786;2023-07-08T06:34:30;2.88;;;2.67;;
36855;SDS011;22788;51.434;6.786;2023-07-08T06:36:55;4.05;;;2.78;;
36855;SDS011;22788;51.434;6.786;2023-07-08T06:39:21;3.67;;;2.92;;
36855;SDS011;22788;51.434;6.786;2023-07-08T06:41:47;5.05;;;2.72;;
36855;SDS011;22788;51.434;6.786;2023-07-08T06:44:12;5.90;;;2.90;;
36855;SDS011;22788;51.434;6.786;2023-07-08T06:46:40;5.68;;;3.22;;
36855;SDS011;22788;51.434;6.786;2023-07-08T06:49:05;4.85;;;3.10;;
36855;SDS011;22788;51.434;6.786;2023-07-08T06:51:31;5.63;;;3.20;;
36855;SDS011;22788;51.434;6.786;2023-07-08T06:53:56;5.43;;;3.22;;
36855;SDS011;22788;51.434;6.786;2023-07-08T06:56:22;5.20;;;2.88;;
36855;SDS011;22788;51.434;6.786;2023-07-08T06:58:48;3.35;;;3.00;;
36855;SDS011;22788;51.434;6.786;2023-07-08T07:01:13;3.63;;;2.88;;
36855;SDS011;22788;51.434;6.786;2023-07-08T07:03:40;2.47;;;2.28;;
36855;SDS011;22788;51.434;6.786;2023-07-08T07:06:07;3.78;;;3.10;;
36855;SDS011;22788;51.434;6.786;2023-07-08T07:08:33;3.97;;;2.92;;
36855;SDS011;22788;51.434;6.786;2023-07-08T07:10:59;3.70;;;2.92;;
36855;SDS011;22788;51.434;6.786;2023-07-08T07:13:24;5.82;;;3.22;;
36855;SDS011;22788;51.434;6.786;2023-07-08T07:15:50;7.85;;;3.90;;
36855;SDS011;22788;51.434;6.786;2023-07-08T07:18:15;5.35;;;3.05;;
36855;SDS011;22788;51.434;6.786;2023-07-08T07:20:48;4.72;;;3.30;;
36855;SDS011;22788;51.434;6.786;2023-07-08T07:23:15;5.35;;;3.17;;
36855;SDS011;22788;51.434;6.786;2023-07-08T07:25:41;4.68;;;3.10;;
36855;SDS011;22788;51.434;6.786;2023-07-08T07:28:06;4.18;;;3.17;;
36855;SDS011;22788;51.434;6.786;2023-07-08T07:30:32;3.78;;;2.85;;
36855;SDS011;22788;51.434;6.786;2023-07-08T07:32:58;3.92;;;3.20;;
36855;SDS011;22788;51.434;6.786;2023-07-08T07:35:24;3.10;;;2.80;;
36855;SDS011;22788;51.434;6.786;2023-07-08T07:37:51;3.53;;;2.65;;
36855;SDS011;22788;51.434;6.786;2023-07-08T07:40:17;4.97;;;3.38;;
36855;SDS011;22788;51.434;6.786;2023-07-08T07:42:43;3.10;;;2.75;;
36855;SDS011;22788;51.434;6.786;2023-07-08T07:45:10;3.20;;;2.90;;
36855;SDS011;22788;51.434;6.786;2023-07-08T07:47:35;4.38;;;3.08;;
36855;SDS011;22788;51.434;6.786;2023-07-08T07:50:01;3.47;;;2.92;;
36855;SDS011;22788;51.434;6.786;2023-07-08T07:52:27;8.60;;;3.20;;
36855;SDS011;22788;51.434;6.786;2023-07-08T07:54:55;4.53;;;3.42;;
36855;SDS011;22788;51.434;6.786;2023-07-08T07:57:21;3.17;;;2.88;;
36855;SDS011;22788;51.434;6.786;2023-07-08T07:59:47;3.60;;;2.97;;
36855;SDS011;22788;51.434;6.786;2023-07-08T08:02:13;3.97;;;2.75;;
36855;SDS011;22788;51.434;6.786;2023-07-08T08:04:38;3.95;;;3.50;;
36855;SDS011;22788;51.434;6.786;2023-07-08T08:07:04;3.05;;;2.78;;
36855;SDS011;22788;51.434;6.786;2023-07-08T08:09:30;4.60;;;3.20;;
36855;SDS011;22788;51.434;6.786;2023-07-08T08:11:57;5.80;;;3.40;;
36855;SDS011;22788;51.434;6.786;2023-07-08T08:14:22;4.22;;;3.22;;
36855;SDS011;22788;51.434;6.786;2023-07-08T08:16:48;5.30;;;3.90;;
36855;SDS011;22788;51.434;6.786;2023-07-08T08:19:13;6.15;;;3.63;;
36855;SDS011;22788;51.434;6.786;2023-07-08T08:21:39;3.65;;;3.00;;
36855;SDS011;22788;51.434;6.786;2023-07-08T08:24:05;3.97;;;2.95;;
36855;SDS011;22788;51.434;6.786;2023-07-08T08:26:30;4.57;;;3.40;;
36855;SDS011;22788;51.434;6.786;2023-07-08T08:28:58;5.75;;;4.00;;
36855;SDS011;22788;51.434;6.786;2023-07-08T08:31:23;5.07;;;4.15;;
36855;SDS011;22788;51.434;6.786;2023-07-08T08:33:50;6.22;;;3.97;;
36855;SDS011;22788;51.434;6.786;2023-07-08T08:36:16;4.32;;;3.53;;
36855;SDS011;22788;51.434;6.786;2023-07-08T08:38:41;5.05;;;4.05;;
36855;SDS011;22788;51.434;6.786;2023-07-08T08:41:09;4.78;;;3.70;;
36855;SDS011;22788;51.434;6.786;2023-07-08T08:43:38;5.82;;;4.18;;
36855;SDS011;22788;51.434;6.786;2023-07-08T08:46:08;6.85;;;3.45;;
36855;SDS011;22788;51.434;6.786;2023-07-08T08:48:38;4.35;;;3.72;;
36855;SDS011;22788;51.434;6.786;2023-07-08T08:51:14;4.82;;;3.97;;
36855;SDS011;22788;51.434;6.786;2023-07-08T08:53:41;4.15;;;3.72;;
36855;SDS011;22788;51.434;6.786;2023-07-08T08:56:09;4.93;;;3.92;;
36855;SDS011;22788;51.434;6.786;2023-07-08T08:58:40;5.68;;;3.72;;
36855;SDS011;22788;51.434;6.786;2023-07-08T09:01:10;5.30;;;4.03;;
36855;SDS011;22788;51.434;6.786;2023-07-08T09:03:41;4.25;;;3.85;;
36855;SDS011;22788;51.434;6.786;2023-07-08T09:06:12;6.90;;;4.40;;
36855;SDS011;22788;51.434;6.786;2023-07-08T09:08:41;4.55;;;3.88;;
36855;SDS011;22788;51.434;6.786;2023-07-08T09:11:10;5.28;;;4.00;;
36855;SDS011;22788;51.434;6.786;2023-07-08T09:13:42;6.25;;;3.83;;
36855;SDS011;22788;51.434;6.786;2023-07-08T09:16:09;5.28;;;4.40;;
36855;SDS011;22788;51.434;6.786;2023-07-08T09:18:45;6.57;;;4.43;;
36855;SDS011;22788;51.434;6.786;2023-07-08T09:21:23;5.30;;;4.38;;
36855;SDS011;22788;51.434;6.786;2023-07-08T09:23:51;4.25;;;3.80;;
36855;SDS011;22788;51.434;6.786;2023-07-08T09:26:21;4.82;;;4.30;;
36855;SDS011;22788;51.434;6.786;2023-07-08T09:28:49;5.80;;;4.28;;
36855;SDS011;22788;51.434;6.786;2023-07-08T09:31:20;5.72;;;4.55;;
36855;SDS011;22788;51.434;6.786;2023-07-08T09:33:47;6.95;;;4.68;;
36855;SDS011;22788;51.434;6.786;2023-07-08T09:36:16;7.18;;;4.35;;
36855;SDS011;22788;51.434;6.786;2023-07-08T09:38:46;5.85;;;4.88;;
36855;SDS011;22788;51.434;6.786;2023-07-08T09:41:13;5.35;;;3.90;;
36855;SDS011;22788;51.434;6.786;2023-07-08T09:43:39;7.65;;;4.68;;
36855;SDS011;22788;51.434;6.786;2023-07-08T09:46:04;5.10;;;4.43;;
36855;SDS011;22788;51.434;6.786;2023-07-08T09:48:37;5.78;;;4.47;;
36855;SDS011;22788;51.434;6.786;2023-07-08T09:51:03;6.13;;;4.65;;
36855;SDS011;22788;51.434;6.786;2023-07-08T09:53:29;6.53;;;4.50;;
36855;SDS011;22788;51.434;6.786;2023-07-08T09:55:56;6.28;;;4.70;;
36855;SDS011;22788;51.434;6.786;2023-07-08T09:58:23;6.88;;;4.28;;
36855;SDS011;22788;51.434;6.786;2023-07-08T10:00:54;5.30;;;4.35;;
36855;SDS011;22788;51.434;6.786;2023-07-08T10:03:22;7.78;;;4.90;;
36855;SDS011;22788;51.434;6.786;2023-07-08T10:05:52;17.15;;;5.03;;
36855;SDS011;22788;51.434;6.786;2023-07-08T10:08:20;9.07;;;4.88;;
36855;SDS011;22788;51.434;6.786;2023-07-08T10:10:48;8.10;;;4.55;;
36855;SDS011;22788;51.434;6.786;2023-07-08T10:13:21;6.43;;;4.75;;
36855;SDS011;22788;51.434;6.786;2023-07-08T10:15:54;10.52;;;4.63;;
36855;SDS011;22788;51.434;6.786;2023-07-08T10:18:25;9.70;;;4.55;;
36855;SDS011;22788;51.434;6.786;2023-07-08T10:20:56;14.48;;;5.22;;
36855;SDS011;22788;51.434;6.786;2023-07-08T10:23:29;13.27;;;4.85;;
36855;SDS011;22788;51.434;6.786;2023-07-08T10:26:06;11.63;;;4.93;;
36855;SDS011;22788;51.434;6.786;2023-07-08T10:28:39;11.05;;;5.05;;
36855;SDS011;22788;51.434;6.786;2023-07-08T10:31:15;10.07;;;4.55;;
36855;SDS011;22788;51.434;6.786;2023-07-08T10:36:40;7.53;;;4.70;;
36855;SDS011;22788;51.434;6.786;2023-07-08T10:39:18;6.25;;;4.20;;
36855;SDS011;22788;51.434;6.786;2023-07-08T10:41:58;13.13;;;4.85;;
36855;SDS011;22788;51.434;6.786;2023-07-08T10:44:31;15.02;;;4.50;;
36855;SDS011;22788;51.434;6.786;2023-07-08T10:47:03;10.48;;;5.25;;
36855;SDS011;22788;51.434;6.786;2023-07-08T10:49:47;7.75;;;4.80;;
36855;SDS011;22788;51.434;6.786;2023-07-08T10:52:30;9.57;;;4.68;;
36855;SDS011;22788;51.434;6.786;2023-07-08T10:55:14;6.93;;;4.25;;
36855;SDS011;22788;51.434;6.786;2023-07-08T11:00:45;6.43;;;4.38;;
36855;SDS011;22788;51.434;6.786;2023-07-08T11:03:28;7.22;;;4.68;;
36855;SDS011;22788;51.434;6.786;2023-07-08T11:06:14;6.80;;;4.55;;
36855;SDS011;22788;51.434;6.786;2023-07-08T11:08:46;10.30;;;4.85;;
36855;SDS011;22788;51.434;6.786;2023-07-08T11:11:20;12.65;;;5.05;;
36855;SDS011;22788;51.434;6.786;2023-07-08T11:13:58;7.47;;;4.22;;
36855;SDS011;22788;51.434;6.786;2023-07-08T11:16:31;6.63;;;4.25;;
36855;SDS011;22788;51.434;6.786;2023-07-08T11:19:01;6.47;;;4.70;;
36855;SDS011;22788;51.434;6.786;2023-07-08T11:21:31;7.53;;;4.07;;
36855;SDS011;22788;51.434;6.786;2023-07-08T11:24:02;7.32;;;4.50;;
36855;SDS011;22788;51.434;6.786;2023-07-08T11:26:34;7.57;;;4.50;;
36855;SDS011;22788;51.434;6.786;2023-07-08T11:29:09;6.28;;;4.47;;
36855;SDS011;22788;51.434;6.786;2023-07-08T11:31:41;6.45;;;4.65;;
36855;SDS011;22788;51.434;6.786;2023-07-08T11:34:08;10.73;;;4.35;;
36855;SDS011;22788;51.434;6.786;2023-07-08T11:36:37;7.00;;;4.38;;
36855;SDS011;22788;51.434;6.786;2023-07-08T11:39:24;8.65;;;4.68;;
36855;SDS011;22788;51.434;6.786;2023-07-08T11:41:52;5.95;;;4.25;;
36855;SDS011;22788;51.434;6.786;2023-07-08T11:44:28;5.55;;;3.95;;
36855;SDS011;22788;51.434;6.786;2023-07-08T11:46:54;9.65;;;4.47;;
36855;SDS011;22788;51.434;6.786;2023-07-08T11:49:22;8.70;;;4.35;;
36855;SDS011;22788;51.434;6.786;2023-07-08T11:51:48;6.13;;;4.40;;
36855;SDS011;22788;51.434;6.786;2023-07-08T11:54:19;9.13;;;4.50;;
36855;SDS011;22788;51.434;6.786;2023-07-08T11:56:57;7.72;;;4.47;;
36855;SDS011;22788;51.434;6.786;2023-07-08T11:59:24;8.55;;;4.35;;
36855;SDS011;22788;51.434;6.786;2023-07-08T12:01:52;6.65;;;4.45;;
36855;SDS011;22788;51.434;6.786;2023-07-08T12:04:26;5.57;;;4.22;;
36855;SDS011;22788;51.434;6.786;2023-07-08T12:07:06;7.80;;;4.10;;
36855;SDS011;22788;51.434;6.786;2023-07-08T12:09:38;7.55;;;3.97;;
36855;SDS011;22788;51.434;6.786;2023-07-08T12:12:13;5.25;;;4.20;;
36855;SDS011;22788;51.434;6.786;2023-07-08T12:14:43;6.00;;;4.63;;
36855;SDS011;22788;51.434;6.786;2023-07-08T12:17:10;6.45;;;4.47;;
36855;SDS011;22788;51.434;6.786;2023-07-08T12:19:37;7.95;;;5.15;;
36855;SDS011;22788;51.434;6.786;2023-07-08T12:22:04;6.28;;;4.63;;
36855;SDS011;22788;51.434;6.786;2023-07-08T12:24:32;6.18;;;4.20;;
36855;SDS011;22788;51.434;6.786;2023-07-08T12:27:00;6.72;;;4.30;;
36855;SDS011;22788;51.434;6.786;2023-07-08T12:29:27;6.75;;;4.00;;
36855;SDS011;22788;51.434;6.786;2023-07-08T12:31:52;5.78;;;3.95;;
36855;SDS011;22788;51.434;6.786;2023-07-08T12:34:26;5.88;;;4.43;;
36855;SDS011;22788;51.434;6.786;2023-07-08T12:36:53;5.93;;;4.22;;
36855;SDS011;22788;51.434;6.786;2023-07-08T12:39:19;5.68;;;4.30;;
36855;SDS011;22788;51.434;6.786;2023-07-08T12:41:46;6.35;;;4.00;;
36855;SDS011;22788;51.434;6.786;2023-07-08T12:44:16;6.60;;;4.07;;
36855;SDS011;22788;51.434;6.786;2023-07-08T12:46:43;7.20;;;4.45;;
36855;SDS011;22788;51.434;6.786;2023-07-08T12:49:08;8.33;;;4.53;;
36855;SDS011;22788;51.434;6.786;2023-07-08T12:51:34;7.88;;;4.03;;
36855;SDS011;22788;51.434;6.786;2023-07-08T12:53:59;13.02;;;4.72;;
36855;SDS011;22788;51.434;6.786;2023-07-08T12:56:25;9.68;;;4.75;;
36855;SDS011;22788;51.434;6.786;2023-07-08T12:58:52;8.82;;;4.47;;
36855;SDS011;22788;51.434;6.786;2023-07-08T13:01:22;7.43;;;4.32;;
36855;SDS011;22788;51.434;6.786;2023-07-08T13:03:51;8.77;;;4.13;;
36855;SDS011;22788;51.434;6.786;2023-07-08T13:06:20;5.85;;;4.55;;
36855;SDS011;22788;51.434;6.786;2023-07-08T13:08:48;6.80;;;4.57;;
36855;SDS011;22788;51.434;6.786;2023-07-08T13:11:15;9.10;;;4.57;;
36855;SDS011;22788;51.434;6.786;2023-07-08T13:13:46;9.90;;;4.47;;
36855;SDS011;22788;51.434;6.786;2023-07-08T13:16:14;7.47;;;4.10;;
36855;SDS011;22788;51.434;6.786;2023-07-08T13:18:42;6.80;;;3.90;;
36855;SDS011;22788;51.434;6.786;2023-07-08T13:21:09;6.68;;;3.90;;
36855;SDS011;22788;51.434;6.786;2023-07-08T13:23:37;8.57;;;4.57;;
36855;SDS011;22788;51.434;6.786;2023-07-08T13:26:11;7.10;;;4.68;;
36855;SDS011;22788;51.434;6.786;2023-07-08T13:28:38;9.77;;;4.20;;
36855;SDS011;22788;51.434;6.786;2023-07-08T13:31:13;7.88;;;4.80;;
36855;SDS011;22788;51.434;6.786;2023-07-08T13:33:44;7.07;;;4.47;;
36855;SDS011;22788;51.434;6.786;2023-07-08T13:36:11;8.43;;;4.93;;
36855;SDS011;22788;51.434;6.786;2023-07-08T13:38:41;6.78;;;4.28;;
36855;SDS011;22788;51.434;6.786;2023-07-08T13:41:07;5.78;;;4.25;;
36855;SDS011;22788;51.434;6.786;2023-07-08T13:43:35;4.70;;;3.72;;
36855;SDS011;22788;51.434;6.786;2023-07-08T13:46:03;6.40;;;4.00;;
36855;SDS011;22788;51.434;6.786;2023-07-08T13:48:29;7.82;;;4.60;;
36855;SDS011;22788;51.434;6.786;2023-07-08T13:51:02;7.10;;;4.47;;
36855;SDS011;22788;51.434;6.786;2023-07-08T13:53:40;6.93;;;3.67;;
36855;SDS011;22788;51.434;6.786;2023-07-08T13:56:11;6.68;;;4.30;;
36855;SDS011;22788;51.434;6.786;2023-07-08T13:58:41;5.25;;;4.22;;
36855;SDS011;22788;51.434;6.786;2023-07-08T14:01:08;7.35;;;3.97;;
36855;SDS011;22788;51.434;6.786;2023-07-08T14:03:39;6.45;;;3.90;;
36855;SDS011;22788;51.434;6.786;2023-07-08T14:06:10;5.30;;;4.00;;
36855;SDS011;22788;51.434;6.786;2023-07-08T14:08:38;6.97;;;4.32;;
36855;SDS011;22788;51.434;6.786;2023-07-08T14:11:03;6.25;;;4.00;;
36855;SDS011;22788;51.434;6.786;2023-07-08T14:13:29;5.45;;;4.35;;
36855;SDS011;22788;51.434;6.786;2023-07-08T14:15:56;6.25;;;4.63;;
36855;SDS011;22788;51.434;6.786;2023-07-08T14:18:23;4.93;;;3.75;;
36855;SDS011;22788;51.434;6.786;2023-07-08T14:20:51;7.03;;;4.30;;
36855;SDS011;22788;51.434;6.786;2023-07-08T14:23:21;6.60;;;4.10;;
36855;SDS011;22788;51.434;6.786;2023-07-08T14:25:49;6.32;;;4.18;;
36855;SDS011;22788;51.434;6.786;2023-07-08T14:28:17;6.25;;;4.15;;
36855;SDS011;22788;51.434;6.786;2023-07-08T14:30:45;7.15;;;4.15;;
36855;SDS011;22788;51.434;6.786;2023-07-08T14:33:14;5.47;;;4.00;;
36855;SDS011;22788;51.434;6.786;2023-07-08T14:35:42;4.93;;;3.47;;
36855;SDS011;22788;51.434;6.786;2023-07-08T14:38:10;5.13;;;3.90;;
36855;SDS011;22788;51.434;6.786;2023-07-08T14:40:41;6.47;;;3.92;;
36855;SDS011;22788;51.434;6.786;2023-07-08T14:43:13;5.00;;;4.13;;
36855;SDS011;22788;51.434;6.786;2023-07-08T14:45:43;7.43;;;4.18;;
36855;SDS011;22788;51.434;6.786;2023-07-08T14:48:13;4.72;;;3.75;;
36855;SDS011;22788;51.434;6.786;2023-07-08T14:50:40;5.75;;;4.03;;
36855;SDS011;22788;51.434;6.786;2023-07-08T14:53:07;5.75;;;4.05;;
36855;SDS011;22788;51.434;6.786;2023-07-08T14:55:35;6.95;;;3.90;;
36855;SDS011;22788;51.434;6.786;2023-07-08T14:58:03;5.55;;;3.88;;